New York, NY

8:17 PM EDT on September 21, 2014 (GMT -0400)
Murray Hill | Change Station
CLOSE
Current Station
Personal Weather Station
Location: New York, NY
Elevation: 98 ft
Nearby Weather Stations

Elev 98 ft 40.75 °N, 73.98 °W | Updated 8 seconds ago

Clear
Clear
72.5 °F
Feels Like 72 °F
N
1.0
Wind Variable Wind from WNW
Gusts 6.0 mph

Today
High -- | Low -- °F
--% Chance of Precip.
Yesterday
High -- | Low -- °F
Precip. -- in
6:42 AM 6:54 PM
Waning Crescent, 5% visible
Pressure 29.62 in
Visibility 8.0 miles
Clouds Clear
Heat Index 72 °F
Dew Point 68 °F
Humidity 84%
Rainfall 0.10 in
Snow Depth Not available.
UV 0 out of 12
Pollen 2.60 out of 12
Ozone Good
PM2.5 Moderate
Flu Activity Not available.
METAR KNYC 212351Z AUTO VRB03KT 8SM CLR 22/18 A2965 RMK AO2 SLP030 T02220183 10239 20222 55011

More Conditions Fewer Conditions

Pressure 29.62 in
Visibility 8.0 miles
Clouds Clear
Heat Index 72 °F
Dew Point 68 °F
Humidity 84%
Rainfall 0.10 in
Snow Depth Not available.
UV 0 out of 12
Pollen 2.60 out of 12
Ozone Good
PM2.5 Moderate
Flu Activity Not available.
METAR KNYC 212351Z AUTO VRB03KT 8SM CLR 22/18 A2965 RMK AO2 SLP030 T02220183 10239 20222 55011

More Conditions Fewer Conditions

10-Day Weather Forecast

Almanac

Astronomy

Sep. 21, 2014 Rise Set
Actual Time 6:42 AM EDT 6:54 PM EDT
Civil Twilight 6:15 AM EDT 7:22 PM EDT
Nautical Twilight 5:43 AM EDT 7:54 PM EDT
Astronomical Twilight 5:10 AM EDT 8:26 PM EDT
Moon 4:13 AM EDT (9/21) 5:30 PM EDT (9/21)
Length of Visible Light 13h 07m
Length of Day
12h 12m
Tomorrow will be 2m 41s shorter.
Waning Crescent, 5% of the Moon is Illuminated
Today
Waning Crescent
Sep 24
New
Oct 1
First Quarter
Oct 8
Full
Oct 15
Last Quarter

Today's Extremes

State Highs State Lows

Community

WunderPhotos

Upload Photos

1,755,310 photos uploaded!

WunderBlogs® & News

Nearby

Air Quality

  Air Quality AQ Index Pollutant
Yesterday Good
PM2.5
Yesterday Good
OZONE
Current Moderate
PM2.5
Current Good
OZONE
Sunday Good
PM2.5
Sunday Good
OZONE
Monday Good
PM2.5
Monday Good
OZONE

Snow Depth

Station Depth Elevation
No new snow has been reported.

Earthquake Activity

City Distance Mag. Time & Date
No recent earthquake activity has been reported nearby.
Minimum magnitude displayed is 2.5.

Coastal Water Temperatures

Place Temperature
Sandy Hook, NJ 69.1 °F
The Battery, NY 71.1 °F
Bergen Point West Reach, NJ 70.0 °F
Kings Point, NY 69.1 °F

Nearby Weather Stations